createdAt,value
2022-12-18T00:03:12.828Z,28.80
2022-12-18T00:08:15.160Z,31.10
2022-12-18T00:13:17.571Z,26.93
2022-12-18T00:18:20.635Z,34.40
2022-12-18T00:23:22.570Z,29.90
2022-12-18T00:28:24.177Z,31.43
2022-12-18T00:33:25.860Z,29.77
2022-12-18T00:38:27.544Z,32.23
2022-12-18T00:43:29.212Z,28.37
2022-12-18T00:48:31.151Z,29.73
2022-12-18T00:53:32.749Z,28.20
2022-12-18T00:58:34.388Z,30.27
2022-12-18T01:03:38.646Z,27.77
2022-12-18T01:08:40.688Z,27.07
2022-12-18T01:13:43.009Z,28.07
2022-12-18T01:18:44.895Z,27.97
2022-12-18T01:23:47.069Z,26.53
2022-12-18T01:28:48.955Z,27.70
2022-12-18T01:33:52.151Z,29.30
2022-12-18T01:38:54.552Z,26.00
2022-12-18T01:43:58.394Z,23.97
2022-12-18T01:49:01.849Z,26.90
2022-12-18T01:54:03.604Z,23.13
2022-12-18T01:59:07.870Z,23.20
2022-12-18T02:04:27.397Z,21.73
2022-12-18T02:09:35.352Z,20.37
2022-12-18T02:14:52.946Z,21.70
2022-12-18T02:19:57.694Z,21.60
2022-12-18T02:25:05.360Z,17.23
2022-12-18T02:30:08.359Z,18.57
2022-12-18T02:35:15.137Z,19.57
2022-12-18T02:40:18.583Z,18.90
2022-12-18T02:45:20.662Z,18.97
2022-12-18T02:50:32.790Z,19.07
2022-12-18T02:55:42.121Z,17.60
2022-12-18T03:01:03.524Z,18.77
2022-12-18T03:06:10.666Z,17.10
2022-12-18T03:11:14.762Z,17.97
2022-12-18T03:16:25.144Z,14.00
2022-12-18T03:21:34.766Z,14.53
2022-12-18T03:26:39.142Z,15.13
2022-12-18T03:31:43.709Z,15.63
2022-12-18T03:36:45.382Z,14.40
2022-12-18T03:41:58.244Z,14.37
2022-12-18T03:47:21.966Z,13.90
2022-12-18T03:52:39.132Z,14.87
2022-12-18T03:57:43.957Z,12.97
2022-12-18T04:02:49.029Z,14.67
2022-12-18T04:07:58.008Z,15.77
2022-12-18T04:13:00.577Z,15.70
2022-12-18T04:18:03.316Z,12.90
2022-12-18T04:23:12.253Z,12.93
2022-12-18T04:28:14.654Z,13.57
2022-12-18T04:33:16.347Z,14.60
2022-12-18T04:38:18.340Z,13.53
2022-12-18T04:43:23.589Z,14.63
2022-12-18T04:48:25.532Z,13.87
2022-12-18T04:53:27.369Z,14.23
2022-12-18T04:58:28.981Z,14.17
2022-12-18T05:03:30.929Z,11.23
2022-12-18T05:08:32.849Z,12.40
2022-12-18T05:13:35.872Z,14.40
2022-12-18T05:18:38.094Z,11.17
2022-12-18T05:23:40.199Z,13.93
2022-12-18T05:28:42.010Z,11.73
2022-12-18T05:33:44.066Z,13.37
2022-12-18T05:38:47.141Z,12.27
2022-12-18T05:43:48.809Z,11.73
2022-12-18T05:48:51.738Z,14.63
2022-12-18T05:53:53.427Z,13.00
2022-12-18T05:58:55.577Z,13.87
2022-12-18T06:03:57.293Z,12.27
2022-12-18T06:08:59.184Z,14.43
2022-12-18T06:14:00.899Z,14.90
2022-12-18T06:19:04.878Z,14.97
2022-12-18T06:24:06.877Z,14.73
2022-12-18T06:29:08.508Z,12.17
2022-12-18T06:34:10.153Z,13.33
2022-12-18T06:39:11.744Z,15.13
2022-12-18T06:44:13.354Z,13.87
2022-12-18T06:49:16.906Z,13.23
2022-12-18T06:54:18.551Z,14.30
2022-12-18T06:59:20.287Z,12.30
2022-12-18T07:04:21.898Z,10.83
2022-12-18T07:09:23.503Z,13.83
2022-12-18T07:14:25.107Z,12.63
2022-12-18T07:19:26.706Z,13.07
2022-12-18T07:24:28.891Z,16.30
2022-12-18T07:29:30.480Z,13.50
2022-12-18T07:34:32.214Z,15.07
2022-12-18T07:39:33.851Z,14.40
2022-12-18T07:44:35.622Z,14.43
2022-12-18T07:49:37.480Z,12.57
2022-12-18T07:54:39.842Z,13.10
2022-12-18T07:59:41.537Z,14.90
2022-12-18T08:04:43.273Z,15.73
2022-12-18T08:09:45.108Z,16.23
2022-12-18T08:14:46.725Z,16.23
2022-12-18T08:19:48.313Z,13.93
2022-12-18T08:24:49.902Z,16.63
2022-12-18T08:29:51.551Z,16.67
2022-12-18T08:34:53.250Z,14.90
2022-12-18T08:39:54.908Z,15.70
2022-12-18T08:44:56.518Z,20.97
2022-12-18T08:49:58.140Z,20.13
2022-12-18T08:54:59.724Z,20.83
2022-12-18T09:00:01.371Z,21.50
2022-12-18T09:05:03.067Z,21.70
2022-12-18T09:10:05.247Z,21.37
2022-12-18T09:15:07.199Z,19.40
2022-12-18T09:20:09.258Z,20.00
2022-12-18T09:25:10.927Z,21.93
2022-12-18T09:30:12.800Z,19.60
2022-12-18T09:35:14.429Z,23.60
2022-12-18T09:40:19.513Z,24.47
2022-12-18T09:45:21.271Z,24.40
2022-12-18T09:50:33.260Z,27.80
2022-12-18T09:55:38.257Z,27.40
2022-12-18T10:00:39.950Z,24.97
2022-12-18T10:05:55.637Z,28.63
2022-12-18T10:11:42.633Z,24.20
2022-12-18T10:17:16.358Z,26.83
2022-12-18T10:22:47.028Z,25.83
2022-12-18T10:27:49.345Z,24.90
2022-12-18T10:32:51.470Z,25.33
2022-12-18T10:38:22.971Z,23.40
2022-12-18T10:43:27.632Z,23.97
2022-12-18T10:48:29.959Z,23.67
2022-12-18T10:53:32.824Z,22.87
2022-12-18T10:58:36.939Z,24.47
2022-12-18T11:03:46.712Z,23.93
2022-12-18T11:09:00.421Z,27.73
2022-12-18T11:14:05.843Z,28.40
2022-12-18T11:19:36.047Z,25.53
2022-12-18T11:24:37.746Z,22.63
2022-12-18T11:29:46.208Z,23.90
2022-12-18T11:34:58.774Z,23.50
2022-12-18T11:40:06.417Z,24.97
2022-12-18T11:45:16.685Z,24.47
2022-12-18T11:50:43.743Z,30.60
2022-12-18T11:56:07.008Z,22.23
2022-12-18T12:01:11.912Z,21.77
2022-12-18T12:06:45.965Z,21.40
2022-12-18T12:12:11.834Z,23.13
2022-12-18T12:17:45.924Z,22.73
2022-12-18T12:22:59.545Z,23.27
2022-12-18T12:28:33.464Z,21.70
2022-12-18T12:34:02.583Z,21.47
2022-12-18T12:39:09.047Z,22.13
2022-12-18T12:44:34.434Z,26.40
2022-12-18T12:49:40.819Z,28.27
2022-12-18T12:54:43.095Z,22.00
2022-12-18T12:59:59.940Z,20.93
2022-12-18T13:05:07.664Z,21.13
2022-12-18T13:10:12.103Z,22.13
2022-12-18T13:15:22.498Z,20.40
2022-12-18T13:20:34.510Z,22.03
2022-12-18T13:25:38.333Z,20.00
2022-12-18T13:30:53.437Z,25.40
2022-12-18T13:36:27.169Z,24.30
2022-12-18T13:41:30.145Z,21.33
2022-12-18T13:46:46.679Z,25.10
2022-12-18T13:51:54.246Z,22.00
2022-12-18T13:56:55.960Z,22.10
2022-12-18T14:02:00.666Z,18.43
2022-12-18T14:07:23.058Z,20.93
2022-12-18T14:12:52.436Z,18.37
2022-12-18T14:17:56.121Z,19.00
2022-12-18T14:22:58.414Z,18.67
2022-12-18T14:28:12.330Z,18.17
2022-12-18T14:33:15.382Z,16.43
2022-12-18T14:38:16.979Z,15.87
2022-12-18T14:43:18.601Z,18.83
2022-12-18T14:48:23.829Z,20.00
2022-12-18T14:53:54.156Z,19.50
2022-12-18T14:58:58.675Z,19.10
2022-12-18T15:04:01.558Z,17.20
2022-12-18T15:09:26.212Z,18.67
2022-12-18T15:14:30.927Z,19.47
2022-12-18T15:19:40.004Z,20.53
2022-12-18T15:24:41.578Z,22.30
2022-12-18T15:29:43.227Z,21.90
2022-12-18T15:34:44.925Z,18.57
2022-12-18T15:39:46.513Z,17.57
2022-12-18T15:44:48.211Z,19.77
2022-12-18T15:49:49.853Z,21.07
2022-12-18T15:55:10.141Z,18.33
2022-12-18T16:00:13.443Z,20.47
2022-12-18T16:05:16.527Z,18.47
2022-12-18T16:10:18.207Z,21.37
2022-12-18T16:15:24.321Z,20.10
2022-12-18T16:20:26.470Z,21.50
2022-12-18T16:25:29.357Z,19.70
2022-12-18T16:30:33.826Z,22.50
2022-12-18T16:35:40.498Z,21.10
2022-12-18T16:41:02.051Z,20.57
2022-12-18T16:46:03.988Z,22.00
2022-12-18T16:51:05.878Z,21.13
2022-12-18T16:56:07.944Z,19.07
2022-12-18T17:01:11.076Z,21.07
2022-12-18T17:06:12.756Z,19.63
2022-12-18T17:11:14.450Z,22.00
2022-12-18T17:16:17.531Z,20.23
2022-12-18T17:21:19.884Z,21.73
2022-12-18T17:26:21.634Z,20.83
2022-12-18T17:31:24.863Z,22.53
2022-12-18T17:36:31.988Z,18.77
2022-12-18T17:41:34.066Z,19.70
2022-12-18T17:46:35.727Z,19.07
2022-12-18T17:51:37.477Z,21.20
2022-12-18T17:56:39.692Z,18.67
2022-12-18T18:01:44.810Z,21.03
2022-12-18T18:06:47.123Z,18.23
2022-12-18T18:12:07.678Z,20.27
2022-12-18T18:17:09.373Z,18.93
2022-12-18T18:22:10.975Z,17.60
2022-12-18T18:27:12.604Z,17.77
2022-12-18T18:32:14.261Z,16.83
2022-12-18T18:37:15.861Z,19.43
2022-12-18T18:42:17.631Z,15.80
2022-12-18T18:47:19.325Z,16.53
2022-12-18T18:52:21.174Z,17.93
2022-12-18T18:57:27.452Z,15.13
2022-12-18T19:02:31.779Z,19.60
2022-12-18T19:07:33.522Z,17.07
2022-12-18T19:12:53.867Z,16.27
2022-12-18T19:17:56.631Z,21.40
2022-12-18T19:22:58.219Z,21.60
2022-12-18T19:27:59.902Z,17.70
2022-12-18T19:33:14.712Z,20.17
2022-12-18T19:38:23.227Z,19.10
2022-12-18T19:43:25.021Z,19.20
2022-12-18T19:48:26.642Z,21.03
2022-12-18T19:53:28.261Z,20.37
2022-12-18T19:58:29.918Z,21.37
2022-12-18T20:03:42.873Z,23.53
2022-12-18T20:08:47.376Z,18.27
2022-12-18T20:13:49.001Z,18.87
2022-12-18T20:18:50.647Z,19.70
2022-12-18T20:23:55.754Z,18.83
2022-12-18T20:28:57.407Z,16.87
2022-12-18T20:34:00.199Z,19.40
2022-12-18T20:39:05.268Z,17.67
2022-12-18T20:44:21.675Z,21.37
2022-12-18T20:49:26.265Z,20.03
2022-12-18T20:54:29.076Z,18.67
2022-12-18T20:59:30.813Z,19.23
2022-12-18T21:04:32.397Z,17.87
2022-12-18T21:09:38.320Z,17.37
2022-12-18T21:14:40.236Z,19.20
2022-12-18T21:19:41.876Z,20.60
2022-12-18T21:24:43.891Z,20.30
2022-12-18T21:29:47.035Z,22.13
2022-12-18T21:34:49.270Z,22.17
2022-12-18T21:39:50.832Z,19.60
2022-12-18T21:44:52.626Z,20.93
2022-12-18T21:49:54.253Z,20.43
2022-12-18T21:54:55.857Z,20.50
2022-12-18T21:59:57.496Z,21.90
2022-12-18T22:04:59.066Z,23.77
2022-12-18T22:10:01.223Z,22.90
2022-12-18T22:15:05.236Z,24.10
2022-12-18T22:20:09.246Z,24.80
2022-12-18T22:25:11.039Z,25.53
2022-12-18T22:30:14.456Z,25.43
2022-12-18T22:35:16.346Z,25.13
2022-12-18T22:40:25.769Z,25.53
2022-12-18T22:45:28.157Z,26.27
2022-12-18T22:50:30.129Z,25.17
2022-12-18T22:55:31.739Z,23.43
2022-12-18T23:00:33.693Z,22.97
2022-12-18T23:05:35.376Z,23.37
2022-12-18T23:10:38.698Z,28.50
2022-12-18T23:15:43.115Z,26.37
2022-12-18T23:20:44.956Z,23.37
2022-12-18T23:25:47.608Z,25.00
2022-12-18T23:30:50.092Z,24.60
2022-12-18T23:35:51.776Z,23.27
2022-12-18T23:40:54.217Z,23.97
2022-12-18T23:45:58.442Z,26.47
2022-12-18T23:51:08.300Z,25.17
2022-12-18T23:56:11.018Z,26.37
